createdAt,value
2023-04-28T00:02:20.644Z,3.90
2023-04-28T00:04:48.094Z,4.33
2023-04-28T00:07:15.504Z,5.90
2023-04-28T00:09:42.720Z,5.40
2023-04-28T00:12:10.010Z,6.00
2023-04-28T00:14:37.288Z,4.77
2023-04-28T00:17:04.902Z,4.50
2023-04-28T00:19:32.342Z,4.77
2023-04-28T00:21:59.737Z,5.83
2023-04-28T00:24:27.020Z,4.83
2023-04-28T00:26:54.257Z,4.57
2023-04-28T00:29:21.568Z,6.27
2023-04-28T00:31:49.012Z,4.17
2023-04-28T00:34:16.551Z,5.90
2023-04-28T00:36:43.971Z,4.47
2023-04-28T00:39:11.230Z,3.73
2023-04-28T00:41:38.431Z,4.73
2023-04-28T00:44:05.683Z,4.00
2023-04-28T00:46:33.897Z,8.20
2023-04-28T00:49:01.735Z,4.50
2023-04-28T00:51:29.190Z,5.00
2023-04-28T00:53:57.629Z,3.50
2023-04-28T00:56:27.570Z,3.90
2023-04-28T00:58:54.915Z,3.40
2023-04-28T01:01:22.607Z,4.37
2023-04-28T01:03:50.320Z,5.10
2023-04-28T01:06:18.773Z,4.37
2023-04-28T01:08:49.315Z,5.60
2023-04-28T01:11:17.153Z,4.60
2023-04-28T01:13:44.378Z,5.30
2023-04-28T01:16:12.016Z,6.10
2023-04-28T01:18:46.273Z,4.30
2023-04-28T01:21:13.510Z,4.23
2023-04-28T01:23:40.910Z,6.40
2023-04-28T01:26:08.255Z,4.17
2023-04-28T01:28:35.924Z,5.43
2023-04-28T01:31:03.405Z,3.50
2023-04-28T01:33:30.743Z,3.20
2023-04-28T01:35:59.397Z,3.53
2023-04-28T01:38:27.081Z,4.07
2023-04-28T01:40:55.671Z,4.63
2023-04-28T01:43:22.852Z,4.87
2023-04-28T01:45:50.084Z,5.53
2023-04-28T01:48:17.609Z,4.40
2023-04-28T01:50:45.032Z,4.90
2023-04-28T01:53:12.418Z,4.13
2023-04-28T01:55:39.661Z,4.30
2023-04-28T02:00:34.533Z,4.37
2023-04-28T02:03:01.803Z,6.33
2023-04-28T02:05:29.060Z,3.80
2023-04-28T02:07:56.333Z,5.17
2023-04-28T02:10:23.511Z,4.83
2023-04-28T02:12:51.053Z,4.20
2023-04-28T02:15:18.269Z,5.47
2023-04-28T02:17:45.707Z,3.50
2023-04-28T02:20:14.411Z,3.70
2023-04-28T02:22:41.820Z,4.83
2023-04-28T02:25:09.382Z,4.00
2023-04-28T02:27:36.864Z,4.23
2023-04-28T02:30:07.565Z,4.63
2023-04-28T02:32:34.861Z,5.13
2023-04-28T02:35:02.147Z,5.43
2023-04-28T02:37:29.361Z,4.57
2023-04-28T02:39:56.986Z,7.00
2023-04-28T02:42:24.239Z,4.27
2023-04-28T02:44:51.515Z,4.60
2023-04-28T02:47:18.687Z,5.10
2023-04-28T02:49:45.973Z,4.40
2023-04-28T02:52:13.360Z,3.70
2023-04-28T02:54:41.190Z,3.83
2023-04-28T02:57:08.474Z,4.00
2023-04-28T02:59:35.894Z,3.93
2023-04-28T03:02:03.123Z,4.00
2023-04-28T03:04:30.409Z,4.43
2023-04-28T03:06:57.816Z,3.80
2023-04-28T03:09:25.008Z,4.23
2023-04-28T03:11:52.260Z,3.80
2023-04-28T03:14:19.447Z,3.73
2023-04-28T03:16:46.866Z,4.43
2023-04-28T03:19:14.040Z,4.10
2023-04-28T03:21:41.383Z,4.50
2023-04-28T03:24:08.756Z,9.77
2023-04-28T03:26:36.340Z,4.87
2023-04-28T03:29:04.123Z,6.23
2023-04-28T03:31:31.386Z,3.60
2023-04-28T03:33:59.687Z,5.57
2023-04-28T03:36:27.653Z,4.10
2023-04-28T03:38:54.974Z,5.77
2023-04-28T03:41:22.239Z,4.93
2023-04-28T03:43:49.494Z,5.00
2023-04-28T03:46:16.749Z,3.93
2023-04-28T03:48:44.101Z,4.97
2023-04-28T03:51:11.804Z,5.17
2023-04-28T03:53:39.051Z,4.20
2023-04-28T03:56:06.682Z,4.73
2023-04-28T03:58:33.899Z,6.07
2023-04-28T04:01:01.251Z,6.17
2023-04-28T04:03:28.699Z,5.27
2023-04-28T04:05:56.585Z,3.77
2023-04-28T04:08:23.945Z,7.30
2023-04-28T04:10:53.088Z,4.03
2023-04-28T04:13:20.987Z,4.00
2023-04-28T04:15:48.411Z,4.87
2023-04-28T04:18:15.864Z,5.20
2023-04-28T04:20:43.061Z,6.13
2023-04-28T04:23:10.317Z,4.50
2023-04-28T04:25:37.662Z,8.00
2023-04-28T04:28:05.009Z,4.50
2023-04-28T04:30:32.396Z,5.83
2023-04-28T04:32:59.735Z,5.97
2023-04-28T04:35:27.018Z,6.97
2023-04-28T04:37:54.348Z,5.17
2023-04-28T04:40:21.981Z,4.33
2023-04-28T04:42:49.181Z,6.27
2023-04-28T04:45:16.709Z,7.37
2023-04-28T04:47:44.709Z,9.90
2023-04-28T04:50:12.360Z,4.50
2023-04-28T04:52:39.619Z,5.00
2023-04-28T04:55:07.749Z,5.50
2023-04-28T04:57:35.000Z,4.50
2023-04-28T05:00:02.293Z,3.87
2023-04-28T05:02:29.534Z,5.80
2023-04-28T05:05:08.189Z,5.70
2023-04-28T05:07:40.025Z,5.17
2023-04-28T05:10:08.078Z,4.10
2023-04-28T05:12:35.355Z,6.60
2023-04-28T05:15:02.576Z,7.13
2023-04-28T05:17:29.853Z,4.30
2023-04-28T05:19:57.150Z,4.93
2023-04-28T05:22:24.444Z,4.80
2023-04-28T05:24:51.735Z,4.23
2023-04-28T05:27:19.508Z,4.20
2023-04-28T05:29:46.870Z,8.83
2023-04-28T05:32:14.238Z,4.47
2023-04-28T05:34:41.588Z,4.77
2023-04-28T05:37:08.825Z,4.40
2023-04-28T05:39:36.038Z,4.47
2023-04-28T05:42:04.591Z,4.97
2023-04-28T05:44:32.016Z,12.50
2023-04-28T05:46:59.314Z,4.20
2023-04-28T05:49:27.188Z,4.47
2023-04-28T05:51:54.376Z,8.80
2023-04-28T05:54:21.603Z,4.63
2023-04-28T05:56:49.153Z,4.57
2023-04-28T05:59:16.616Z,8.37
2023-04-28T06:01:44.073Z,7.27
2023-04-28T06:04:11.733Z,6.13
2023-04-28T06:06:39.400Z,5.30
2023-04-28T06:09:07.210Z,5.33
2023-04-28T06:11:34.541Z,5.40
2023-04-28T06:14:01.829Z,5.00
2023-04-28T06:16:29.473Z,8.63
2023-04-28T06:18:56.900Z,4.53
2023-04-28T06:21:25.047Z,5.20
2023-04-28T06:23:52.264Z,5.37
2023-04-28T06:26:19.484Z,4.83
2023-04-28T06:28:46.808Z,4.20
2023-04-28T06:31:14.063Z,4.43
2023-04-28T06:33:41.252Z,3.70
2023-04-28T06:36:08.852Z,5.07
2023-04-28T06:38:36.849Z,4.60
2023-04-28T06:41:04.173Z,4.43
2023-04-28T06:43:32.387Z,6.10
2023-04-28T06:45:59.733Z,4.20
2023-04-28T06:48:27.227Z,4.83
2023-04-28T06:50:54.535Z,3.30
2023-04-28T06:53:21.826Z,6.43
2023-04-28T06:55:49.108Z,19.50
2023-04-28T06:58:16.469Z,4.20
2023-04-28T07:00:43.729Z,6.33
2023-04-28T07:03:11.513Z,4.50
2023-04-28T07:05:39.106Z,12.23
2023-04-28T07:08:06.629Z,5.00
2023-04-28T07:10:34.131Z,7.37
2023-04-28T07:13:01.415Z,3.80
2023-04-28T07:15:29.013Z,4.27
2023-04-28T07:17:56.337Z,4.20
2023-04-28T07:20:23.895Z,5.40
2023-04-28T07:22:51.185Z,10.83
2023-04-28T07:25:18.416Z,4.10
2023-04-28T07:27:47.051Z,4.00
2023-04-28T07:30:26.775Z,3.83
2023-04-28T07:32:55.614Z,4.00
2023-04-28T07:35:23.770Z,3.70
2023-04-28T07:37:51.086Z,4.27
2023-04-28T07:40:18.988Z,5.03
2023-04-28T07:42:46.447Z,3.90
2023-04-28T07:45:14.576Z,4.00
2023-04-28T07:47:41.861Z,6.13
2023-04-28T07:50:12.401Z,4.50
2023-04-28T07:52:39.851Z,4.30
2023-04-28T07:55:07.609Z,7.17
2023-04-28T07:57:35.881Z,7.93
2023-04-28T08:00:03.914Z,8.40
2023-04-28T08:02:31.418Z,5.90
2023-04-28T08:04:58.961Z,9.27
2023-04-28T08:07:26.772Z,5.30
2023-04-28T08:09:55.301Z,6.73
2023-04-28T08:12:22.514Z,9.60
2023-04-28T08:14:49.741Z,4.77
2023-04-28T08:17:18.457Z,10.80
2023-04-28T08:19:46.470Z,8.37
2023-04-28T08:22:13.764Z,4.80
2023-04-28T08:24:41.184Z,5.83
2023-04-28T08:27:08.569Z,4.07
2023-04-28T08:29:35.899Z,8.57
2023-04-28T08:32:03.280Z,9.80
2023-04-28T08:34:30.552Z,11.70
2023-04-28T08:36:57.925Z,5.83
2023-04-28T08:39:26.924Z,5.20
2023-04-28T08:41:54.401Z,6.57
2023-04-28T08:44:23.648Z,6.77
2023-04-28T08:46:56.538Z,7.80
2023-04-28T08:49:32.212Z,5.57
2023-04-28T08:52:01.004Z,5.57
2023-04-28T08:54:32.331Z,6.20
2023-04-28T08:57:01.310Z,6.90
2023-04-28T08:59:28.987Z,6.00
2023-04-28T09:01:57.130Z,7.20
2023-04-28T09:04:24.856Z,8.23
2023-04-28T09:06:52.636Z,5.63
2023-04-28T09:09:23.435Z,4.90
2023-04-28T09:11:58.415Z,3.43
2023-04-28T09:14:26.878Z,7.80
2023-04-28T09:16:54.540Z,5.90
2023-04-28T09:19:22.305Z,4.23
2023-04-28T09:21:57.246Z,9.03
2023-04-28T09:24:30.899Z,5.80
2023-04-28T09:27:02.813Z,5.60
2023-04-28T09:29:31.296Z,4.33
2023-04-28T09:32:21.970Z,4.87
2023-04-28T09:34:54.558Z,7.83
2023-04-28T09:37:23.998Z,3.97
2023-04-28T09:39:53.982Z,6.00
2023-04-28T09:42:45.086Z,3.80
2023-04-28T09:45:16.364Z,12.33
2023-04-28T09:47:47.240Z,13.97
2023-04-28T09:50:17.732Z,5.83
2023-04-28T09:52:57.038Z,3.17
2023-04-28T09:55:25.171Z,4.73
2023-04-28T09:57:55.391Z,5.10
2023-04-28T10:00:24.037Z,10.47
2023-04-28T10:02:52.370Z,7.40
2023-04-28T10:05:21.080Z,5.70
2023-04-28T10:07:48.584Z,8.43
2023-04-28T10:10:16.390Z,8.90
2023-04-28T10:12:44.946Z,8.00
2023-04-28T10:15:13.307Z,4.20
2023-04-28T10:17:40.786Z,5.90
2023-04-28T10:20:09.075Z,10.27
2023-04-28T10:22:51.847Z,5.60
2023-04-28T10:25:35.311Z,4.80
2023-04-28T10:28:07.380Z,8.70
2023-04-28T10:30:35.308Z,9.10
2023-04-28T10:33:15.087Z,5.83
2023-04-28T10:35:45.172Z,4.23
2023-04-28T10:38:17.889Z,7.00
2023-04-28T10:40:46.414Z,5.17
2023-04-28T10:43:32.853Z,8.80
2023-04-28T10:46:02.211Z,6.97
2023-04-28T10:48:29.920Z,5.17
2023-04-28T10:51:07.013Z,5.00
2023-04-28T10:53:47.055Z,5.53
2023-04-28T10:56:26.561Z,5.80
2023-04-28T10:58:54.444Z,6.80
2023-04-28T11:01:21.987Z,3.87
2023-04-28T11:04:04.928Z,8.90
2023-04-28T11:06:43.597Z,7.53
2023-04-28T11:09:19.561Z,10.43
2023-04-28T11:12:06.065Z,3.90
2023-04-28T11:14:35.219Z,4.10
2023-04-28T11:17:07.728Z,11.60
2023-04-28T11:19:40.344Z,10.00
2023-04-28T11:22:26.016Z,7.07
2023-04-28T11:25:03.963Z,4.40
2023-04-28T11:27:33.431Z,6.90
2023-04-28T11:30:02.083Z,5.40
2023-04-28T11:32:34.662Z,6.40
2023-04-28T11:35:03.953Z,5.07
2023-04-28T11:37:31.481Z,8.50
2023-04-28T11:40:10.222Z,5.03
2023-04-28T11:42:46.903Z,5.13
2023-04-28T11:45:14.244Z,5.23
2023-04-28T11:47:41.523Z,7.63
2023-04-28T11:50:09.482Z,8.73
2023-04-28T11:52:48.099Z,6.57
2023-04-28T11:55:17.860Z,4.37
2023-04-28T11:57:45.211Z,5.80
2023-04-28T12:00:22.180Z,5.37
2023-04-28T12:02:50.162Z,5.43
2023-04-28T12:05:17.701Z,9.10
2023-04-28T12:07:45.970Z,6.33
2023-04-28T12:10:18.978Z,7.77
2023-04-28T12:15:19.497Z,6.20
2023-04-28T12:17:48.624Z,4.40
2023-04-28T12:20:36.463Z,4.67
2023-04-28T12:23:03.919Z,5.63
2023-04-28T12:25:31.384Z,4.63
2023-04-28T12:28:04.160Z,6.57
2023-04-28T12:30:33.739Z,9.50
2023-04-28T12:33:01.233Z,5.57
2023-04-28T12:35:29.696Z,5.47
2023-04-28T12:37:58.743Z,7.07
2023-04-28T12:40:26.372Z,4.23
2023-04-28T12:42:53.820Z,4.80
2023-04-28T12:45:21.247Z,5.10
2023-04-28T12:47:48.620Z,6.73
2023-04-28T12:50:16.028Z,5.10
2023-04-28T12:52:43.373Z,4.77
2023-04-28T12:55:10.799Z,4.83
2023-04-28T12:57:39.547Z,11.17
2023-04-28T13:00:08.578Z,8.73
2023-04-28T13:02:36.205Z,6.43
2023-04-28T13:05:03.741Z,6.80
2023-04-28T13:07:31.966Z,6.47
2023-04-28T13:09:59.523Z,5.63
2023-04-28T13:12:26.898Z,5.30
2023-04-28T13:14:54.142Z,4.70
2023-04-28T13:17:21.467Z,7.93
2023-04-28T13:19:48.782Z,5.30
2023-04-28T13:22:16.188Z,7.00
2023-04-28T13:24:43.852Z,5.60
2023-04-28T13:27:11.473Z,4.83
2023-04-28T13:29:38.858Z,8.87
2023-04-28T13:32:06.667Z,4.53
2023-04-28T13:34:33.981Z,9.83
2023-04-28T13:37:01.292Z,6.47
2023-04-28T13:39:28.527Z,7.53
2023-04-28T13:41:55.749Z,5.43
2023-04-28T13:44:22.951Z,7.40
2023-04-28T13:46:50.238Z,6.70
2023-04-28T13:49:17.449Z,5.90
2023-04-28T13:51:45.886Z,5.60
2023-04-28T13:54:13.187Z,9.27
2023-04-28T13:56:40.735Z,10.10
2023-04-28T13:59:07.972Z,9.30
2023-04-28T14:01:35.849Z,5.03
2023-04-28T14:04:03.433Z,4.43
2023-04-28T14:06:32.980Z,6.40
2023-04-28T14:09:02.816Z,5.40
2023-04-28T14:11:30.039Z,4.97
2023-04-28T14:13:57.478Z,6.47
2023-04-28T14:16:24.756Z,10.33
2023-04-28T14:18:51.996Z,10.83
2023-04-28T14:21:19.175Z,15.83
2023-04-28T14:23:46.479Z,7.00
2023-04-28T14:26:13.802Z,7.70
2023-04-28T14:28:42.059Z,9.10
2023-04-28T14:31:09.456Z,5.37
2023-04-28T14:33:37.263Z,11.47
2023-04-28T14:36:05.269Z,7.13
2023-04-28T14:38:32.657Z,7.60
2023-04-28T14:41:00.075Z,6.20
2023-04-28T14:43:27.526Z,6.97
2023-04-28T14:45:55.054Z,7.47
2023-04-28T14:48:22.344Z,5.53
2023-04-28T14:50:51.373Z,11.10
2023-04-28T14:53:18.873Z,6.40
2023-04-28T14:55:46.101Z,11.27
2023-04-28T14:58:13.359Z,6.67
2023-04-28T15:00:40.682Z,6.87
2023-04-28T15:03:08.153Z,7.30
2023-04-28T15:05:35.506Z,6.10
2023-04-28T15:08:02.854Z,8.17
2023-04-28T15:10:37.797Z,6.50
2023-04-28T15:13:05.470Z,6.90
2023-04-28T15:15:32.727Z,8.13
2023-04-28T15:18:01.205Z,9.70
2023-04-28T15:20:30.600Z,13.50
2023-04-28T15:22:57.946Z,6.73
2023-04-28T15:25:26.354Z,8.90
2023-04-28T15:27:53.850Z,6.13
2023-04-28T15:30:22.208Z,8.03
2023-04-28T15:32:50.692Z,6.40
2023-04-28T15:35:18.268Z,8.83
2023-04-28T15:37:48.118Z,6.20
2023-04-28T15:40:17.117Z,6.93
2023-04-28T15:42:53.094Z,6.83
2023-04-28T15:45:22.280Z,6.63
2023-04-28T15:47:51.077Z,9.67
2023-04-28T15:50:20.492Z,6.33
2023-04-28T15:52:50.270Z,9.10
2023-04-28T15:55:19.287Z,7.20
2023-04-28T15:57:47.806Z,8.10
2023-04-28T16:00:18.466Z,9.70
2023-04-28T16:02:46.646Z,7.40
2023-04-28T16:05:14.603Z,9.50
2023-04-28T16:07:42.321Z,5.67
2023-04-28T16:10:15.188Z,5.90
2023-04-28T16:12:43.234Z,7.50
2023-04-28T16:15:12.804Z,6.70
2023-04-28T16:17:41.241Z,9.80
2023-04-28T16:20:10.175Z,8.90
2023-04-28T16:22:38.905Z,7.27
2023-04-28T16:25:07.143Z,7.90
2023-04-28T16:27:34.742Z,11.47
2023-04-28T16:30:02.442Z,9.53
2023-04-28T16:32:30.715Z,8.00
2023-04-28T16:34:58.598Z,8.00
2023-04-28T16:37:26.567Z,10.03
2023-04-28T16:39:54.097Z,8.17
2023-04-28T16:42:22.472Z,7.00
2023-04-28T16:44:52.488Z,7.47
2023-04-28T16:47:21.066Z,13.43
2023-04-28T16:49:48.783Z,9.17
2023-04-28T16:52:16.753Z,8.67
2023-04-28T16:54:44.249Z,7.63
2023-04-28T16:57:11.513Z,6.50
2023-04-28T16:59:38.782Z,6.77
2023-04-28T17:02:06.794Z,7.10
2023-04-28T17:04:34.877Z,6.10
2023-04-28T17:07:05.518Z,8.63
2023-04-28T17:09:33.420Z,7.77
2023-04-28T17:12:01.093Z,7.60
2023-04-28T17:14:28.450Z,7.03
2023-04-28T17:16:55.951Z,10.23
2023-04-28T17:19:23.457Z,14.30
2023-04-28T17:21:52.864Z,7.30
2023-04-28T17:24:20.187Z,6.37
2023-04-28T17:26:47.487Z,7.17
2023-04-28T17:29:15.089Z,8.70
2023-04-28T17:31:45.516Z,9.27
2023-04-28T17:34:13.293Z,10.27
2023-04-28T17:36:40.731Z,14.73
2023-04-28T17:39:09.435Z,7.30
2023-04-28T17:41:36.783Z,10.00
2023-04-28T17:44:04.114Z,8.60
2023-04-28T17:46:32.530Z,7.80
2023-04-28T17:49:00.472Z,12.07
2023-04-28T17:51:28.007Z,8.80
2023-04-28T17:53:56.922Z,11.73
2023-04-28T17:56:24.427Z,13.13
2023-04-28T17:58:51.886Z,16.63
2023-04-28T18:01:19.543Z,8.73
2023-04-28T18:03:47.286Z,12.83
2023-04-28T18:06:14.550Z,19.27
2023-04-28T18:08:41.777Z,11.83
2023-04-28T18:11:10.170Z,12.83
2023-04-28T18:13:37.497Z,10.77
2023-04-28T18:16:05.268Z,17.87
2023-04-28T18:18:35.381Z,10.20
2023-04-28T18:21:03.384Z,15.57
2023-04-28T18:23:30.729Z,10.17
2023-04-28T18:25:57.988Z,9.23
2023-04-28T18:28:25.259Z,9.10
2023-04-28T18:30:52.492Z,9.30
2023-04-28T18:33:22.851Z,19.40
2023-04-28T18:36:05.126Z,7.97
2023-04-28T18:38:35.214Z,9.20
2023-04-28T18:41:13.767Z,9.57
2023-04-28T18:43:42.384Z,12.13
2023-04-28T18:46:10.447Z,9.63
2023-04-28T18:48:38.093Z,11.67
2023-04-28T18:51:05.572Z,11.50
2023-04-28T18:53:32.982Z,14.63
2023-04-28T18:56:01.666Z,13.37
2023-04-28T18:58:29.010Z,9.23
2023-04-28T19:00:56.712Z,9.60
2023-04-28T19:03:24.471Z,8.67
2023-04-28T19:05:51.855Z,9.50
2023-04-28T19:08:19.092Z,11.30
2023-04-28T19:10:48.060Z,9.83
2023-04-28T19:13:16.206Z,18.73
2023-04-28T19:15:43.532Z,10.33
2023-04-28T19:18:12.670Z,9.77
2023-04-28T19:20:42.143Z,13.70
2023-04-28T19:23:09.500Z,17.73
2023-04-28T19:25:37.021Z,18.70
2023-04-28T19:28:05.835Z,11.90
2023-04-28T19:30:33.106Z,13.20
2023-04-28T19:33:00.555Z,15.63
2023-04-28T19:35:28.106Z,10.43
2023-04-28T19:37:55.954Z,10.07
2023-04-28T19:40:23.513Z,11.23
2023-04-28T19:42:51.321Z,14.93
2023-04-28T19:45:19.192Z,9.77
2023-04-28T19:47:46.511Z,12.50
2023-04-28T19:50:13.799Z,11.03
2023-04-28T19:52:41.782Z,8.87
2023-04-28T19:55:09.656Z,12.77
2023-04-28T19:57:37.357Z,12.30
2023-04-28T20:00:05.210Z,11.77
2023-04-28T20:02:32.590Z,11.70
2023-04-28T20:04:59.916Z,14.70
2023-04-28T20:07:27.119Z,15.60
2023-04-28T20:09:56.213Z,15.20
2023-04-28T20:12:23.907Z,17.00
2023-04-28T20:14:52.104Z,15.63
2023-04-28T20:17:19.601Z,11.10
2023-04-28T20:19:46.873Z,12.00
2023-04-28T20:22:14.141Z,10.03
2023-04-28T20:24:41.389Z,9.63
2023-04-28T20:27:08.608Z,10.30
2023-04-28T20:29:37.152Z,10.33
2023-04-28T20:32:05.175Z,10.97
2023-04-28T20:34:32.454Z,12.33
2023-04-28T20:37:03.564Z,13.30
2023-04-28T20:39:30.798Z,13.80
2023-04-28T20:41:59.701Z,14.10
2023-04-28T20:44:27.068Z,21.23
2023-04-28T20:46:55.334Z,22.63
2023-04-28T20:49:22.728Z,17.53
2023-04-28T20:51:50.047Z,19.57
2023-04-28T20:54:17.364Z,16.80
2023-04-28T20:56:45.171Z,13.83
2023-04-28T20:59:12.683Z,11.80
2023-04-28T21:01:41.160Z,11.77
2023-04-28T21:04:08.898Z,12.50
2023-04-28T21:06:36.686Z,14.93
2023-04-28T21:09:04.044Z,16.87
2023-04-28T21:11:31.282Z,14.33
2023-04-28T21:13:58.675Z,12.47
2023-04-28T21:16:26.105Z,14.43
2023-04-28T21:18:54.585Z,14.97
2023-04-28T21:21:21.837Z,13.90
2023-04-28T21:23:49.481Z,11.60
2023-04-28T21:26:16.830Z,12.03
2023-04-28T21:28:44.095Z,13.40
2023-04-28T21:31:11.482Z,14.80
2023-04-28T21:33:38.697Z,11.27
2023-04-28T21:36:09.943Z,11.83
2023-04-28T21:38:38.056Z,14.43
2023-04-28T21:41:05.623Z,12.77
2023-04-28T21:43:32.971Z,11.13
2023-04-28T21:46:00.308Z,14.50
2023-04-28T21:48:27.523Z,10.43
2023-04-28T21:50:54.754Z,10.47
2023-04-28T21:53:22.020Z,14.10
2023-04-28T21:55:49.595Z,9.63
2023-04-28T21:58:16.977Z,15.07
2023-04-28T22:00:47.121Z,8.50
2023-04-28T22:03:15.475Z,8.07
2023-04-28T22:05:44.266Z,7.53
2023-04-28T22:08:11.942Z,10.93
2023-04-28T22:10:39.387Z,11.77
2023-04-28T22:13:06.855Z,11.20
2023-04-28T22:15:34.453Z,11.00
2023-04-28T22:18:01.890Z,10.80
2023-04-28T22:20:29.367Z,11.50
2023-04-28T22:22:57.760Z,10.47
2023-04-28T22:25:25.406Z,11.30
2023-04-28T22:27:52.631Z,10.73
2023-04-28T22:30:20.018Z,9.87
2023-04-28T22:32:47.729Z,14.67
2023-04-28T22:35:17.136Z,11.10
2023-04-28T22:37:44.535Z,10.10
2023-04-28T22:40:12.114Z,14.83
2023-04-28T22:42:41.319Z,9.90
2023-04-28T22:45:10.374Z,9.87
2023-04-28T22:47:40.869Z,11.43
2023-04-28T22:50:09.526Z,9.87
2023-04-28T22:52:37.107Z,13.87
2023-04-28T22:55:04.845Z,14.50
2023-04-28T22:57:32.198Z,7.60
2023-04-28T22:59:59.492Z,7.67
2023-04-28T23:02:26.955Z,7.57
2023-04-28T23:04:54.381Z,8.23
2023-04-28T23:07:21.674Z,10.30
2023-04-28T23:09:48.966Z,9.77
2023-04-28T23:12:16.504Z,8.67
2023-04-28T23:14:43.984Z,10.50
2023-04-28T23:17:11.564Z,11.10
2023-04-28T23:19:39.670Z,10.60
2023-04-28T23:22:08.101Z,9.07
2023-04-28T23:24:37.228Z,10.13
2023-04-28T23:27:05.069Z,9.20
2023-04-28T23:29:33.211Z,8.57
2023-04-28T23:32:00.574Z,8.27
2023-04-28T23:34:28.370Z,7.93
2023-04-28T23:36:55.630Z,5.27
2023-04-28T23:39:22.873Z,9.70
2023-04-28T23:41:50.956Z,6.80
2023-04-28T23:44:18.333Z,8.47
2023-04-28T23:46:45.703Z,9.20
2023-04-28T23:49:13.787Z,7.73
2023-04-28T23:51:41.247Z,10.87
2023-04-28T23:54:09.584Z,8.07
2023-04-28T23:56:36.783Z,11.27
2023-04-28T23:59:04.926Z,8.47
